createdAt,value
2022-08-14T00:01:36.627Z,4.40
2022-08-14T00:04:03.619Z,4.93
2022-08-14T00:09:17.087Z,4.70
2022-08-14T00:11:44.697Z,4.72
2022-08-14T00:14:12.245Z,4.93
2022-08-14T00:16:45.206Z,4.97
2022-08-14T00:19:18.725Z,4.97
2022-08-14T00:21:47.785Z,5.00
2022-08-14T00:24:28.236Z,5.18
2022-08-14T00:26:56.279Z,5.18
2022-08-14T00:29:25.250Z,4.63
2022-08-14T00:31:55.279Z,4.50
2022-08-14T00:34:35.283Z,5.28
2022-08-14T00:37:05.585Z,5.07
2022-08-14T00:39:32.892Z,5.28
2022-08-14T00:41:59.744Z,5.20
2022-08-14T00:44:33.020Z,5.10
2022-08-14T00:47:10.832Z,5.32
2022-08-14T00:49:43.037Z,5.00
2022-08-14T00:52:18.066Z,5.80
2022-08-14T00:54:58.136Z,4.97
2022-08-14T00:57:27.677Z,4.97
2022-08-14T00:59:56.418Z,5.35
2022-08-14T01:02:27.730Z,4.90
2022-08-14T01:04:58.542Z,5.40
2022-08-14T01:07:28.539Z,4.85
2022-08-14T01:10:06.025Z,5.13
2022-08-14T01:12:33.856Z,5.13
2022-08-14T01:15:09.709Z,5.43
2022-08-14T01:18:00.255Z,5.00
2022-08-14T01:20:46.402Z,5.32
2022-08-14T01:23:16.104Z,5.73
2022-08-14T01:25:46.029Z,5.03
2022-08-14T01:28:47.067Z,4.97
2022-08-14T01:33:30.171Z,5.20
2022-08-14T01:36:04.080Z,5.20
2022-08-14T01:38:34.385Z,4.85
2022-08-14T01:41:14.927Z,4.93
2022-08-14T01:43:56.662Z,4.93
2022-08-14T01:46:25.034Z,5.80
2022-08-14T01:48:52.169Z,5.10
2022-08-14T01:51:24.590Z,5.10
2022-08-14T01:53:56.010Z,4.82
2022-08-14T01:56:37.195Z,5.00
2022-08-14T01:59:21.578Z,5.10
2022-08-14T02:01:58.340Z,4.97
2022-08-14T02:04:54.612Z,4.63
2022-08-14T02:07:34.424Z,4.47
2022-08-14T02:10:06.772Z,4.40
2022-08-14T02:12:34.186Z,4.40
2022-08-14T02:15:02.050Z,5.10
2022-08-14T02:17:30.732Z,4.68
2022-08-14T02:19:57.705Z,5.15
2022-08-14T02:22:32.484Z,4.78
2022-08-14T02:25:01.385Z,4.63
2022-08-14T02:28:25.869Z,4.75
2022-08-14T02:30:16.588Z,5.05
2022-08-14T02:32:43.527Z,5.28
2022-08-14T02:35:19.214Z,5.30
2022-08-14T02:37:49.845Z,5.40
2022-08-14T02:40:32.548Z,5.15
2022-08-14T02:43:02.666Z,4.65
2022-08-14T02:45:37.876Z,4.93
2022-08-14T02:48:10.516Z,4.95
2022-08-14T02:50:56.980Z,4.80
2022-08-14T02:53:31.463Z,4.65
2022-08-14T02:56:03.104Z,4.10
2022-08-14T02:58:51.089Z,4.63
2022-08-14T03:01:21.169Z,5.03
2022-08-14T03:03:51.778Z,5.03
2022-08-14T03:06:49.106Z,4.90
2022-08-14T03:09:07.679Z,4.88
2022-08-14T03:11:35.358Z,4.65
2022-08-14T03:14:02.241Z,5.40
2022-08-14T03:16:36.206Z,5.82
2022-08-14T03:21:34.914Z,5.13
2022-08-14T03:24:21.745Z,5.75
2022-08-14T03:26:57.395Z,5.13
2022-08-14T03:29:27.646Z,4.97
2022-08-14T03:31:56.372Z,5.20
2022-08-14T03:34:24.374Z,5.30
2022-08-14T03:37:51.823Z,4.95
2022-08-14T03:39:53.209Z,4.80
2022-08-14T03:42:21.344Z,5.10
2022-08-14T03:45:19.987Z,4.55
2022-08-14T03:47:46.629Z,4.65
2022-08-14T03:50:27.854Z,4.20
2022-08-14T03:53:01.260Z,4.93
2022-08-14T03:55:28.765Z,4.85
2022-08-14T03:57:57.587Z,4.63
2022-08-14T04:00:43.349Z,4.95
2022-08-14T04:03:15.226Z,4.72
2022-08-14T04:05:48.566Z,4.43
2022-08-14T04:08:30.157Z,5.20
2022-08-14T04:11:00.927Z,5.13
2022-08-14T04:13:31.708Z,5.10
2022-08-14T04:16:05.225Z,5.32
2022-08-14T04:18:34.203Z,4.43
2022-08-14T04:21:01.297Z,4.57
2022-08-14T04:23:29.465Z,4.60
2022-08-14T04:26:01.843Z,4.60
2022-08-14T04:29:01.945Z,4.97
2022-08-14T04:33:43.113Z,4.80
2022-08-14T04:36:16.064Z,4.18
2022-08-14T04:39:02.884Z,4.63
2022-08-14T04:41:48.133Z,4.72
2022-08-14T04:44:26.803Z,4.07
2022-08-14T04:47:46.354Z,4.60
2022-08-14T04:50:13.389Z,4.55
2022-08-14T04:52:40.844Z,4.30
2022-08-14T04:55:10.475Z,4.75
2022-08-14T04:57:39.034Z,4.55
2022-08-14T05:00:07.283Z,4.32
2022-08-14T05:02:43.470Z,4.43
2022-08-14T05:05:10.331Z,4.72
2022-08-14T05:07:46.892Z,4.40
2022-08-14T05:10:25.947Z,4.57
2022-08-14T05:13:13.162Z,4.35
2022-08-14T05:15:42.243Z,4.30
2022-08-14T05:18:17.753Z,4.30
2022-08-14T05:21:57.419Z,4.50
2022-08-14T05:23:48.381Z,4.20
2022-08-14T05:26:17.176Z,4.57
2022-08-14T05:28:46.078Z,4.55
2022-08-14T05:31:20.665Z,4.32
2022-08-14T05:33:54.788Z,4.40
2022-08-14T05:36:25.166Z,4.35
2022-08-14T05:38:53.127Z,3.70
2022-08-14T05:41:20.319Z,4.30
2022-08-14T05:43:51.125Z,3.72
2022-08-14T05:46:22.632Z,3.80
2022-08-14T05:48:56.149Z,3.78
2022-08-14T05:51:24.951Z,3.70
2022-08-14T05:54:01.442Z,3.92
2022-08-14T05:56:37.278Z,3.42
2022-08-14T05:59:05.324Z,3.83
2022-08-14T06:01:32.469Z,4.00
2022-08-14T06:04:00.301Z,3.70
2022-08-14T06:06:27.082Z,3.80
2022-08-14T06:08:53.834Z,3.90
2022-08-14T06:11:27.984Z,3.80
2022-08-14T06:13:58.586Z,3.53
2022-08-14T06:16:25.761Z,3.58
2022-08-14T06:18:53.276Z,3.83
2022-08-14T06:21:23.331Z,3.58
2022-08-14T06:23:50.621Z,3.45
2022-08-14T06:26:20.888Z,3.50
2022-08-14T06:28:51.787Z,3.30
2022-08-14T06:31:20.490Z,3.30
2022-08-14T06:35:10.862Z,3.08
2022-08-14T06:39:02.203Z,3.33
2022-08-14T06:41:52.717Z,3.72
2022-08-14T06:49:16.253Z,3.30
2022-08-14T06:51:46.750Z,2.72
2022-08-14T06:54:16.647Z,2.90
2022-08-14T06:56:44.484Z,2.92
2022-08-14T06:59:21.365Z,3.05
2022-08-14T07:02:13.268Z,2.80
2022-08-14T07:04:59.256Z,3.10
2022-08-14T07:07:28.764Z,3.03
2022-08-14T07:09:55.774Z,3.03
2022-08-14T07:12:54.204Z,2.30
2022-08-14T07:15:10.354Z,2.30
2022-08-14T07:17:51.942Z,1.90
2022-08-14T07:20:20.566Z,1.88
2022-08-14T07:23:07.422Z,1.98
2022-08-14T07:25:37.637Z,1.80
2022-08-14T07:28:20.866Z,1.90
2022-08-14T07:30:51.249Z,1.90
2022-08-14T07:33:24.413Z,1.60
2022-08-14T07:35:58.223Z,1.70
2022-08-14T07:38:32.024Z,1.60
2022-08-14T07:41:11.673Z,1.70
2022-08-14T07:43:42.510Z,1.60
2022-08-14T07:46:09.284Z,1.90
2022-08-14T07:48:40.801Z,1.92
2022-08-14T07:51:10.756Z,1.77
2022-08-14T07:53:40.885Z,1.58
2022-08-14T07:56:21.854Z,1.48
2022-08-14T07:58:58.542Z,1.40
2022-08-14T08:01:27.786Z,1.75
2022-08-14T08:03:59.903Z,1.55
2022-08-14T08:06:28.191Z,2.10
2022-08-14T08:09:02.716Z,1.77
2022-08-14T08:11:37.092Z,1.67
2022-08-14T08:14:17.602Z,1.70
2022-08-14T08:16:51.215Z,1.67
2022-08-14T08:19:19.345Z,1.60
2022-08-14T08:21:47.170Z,1.90
2022-08-14T08:24:19.791Z,1.80
2022-08-14T08:26:50.663Z,1.83
2022-08-14T08:29:28.277Z,1.85
2022-08-14T08:32:01.633Z,1.73
2022-08-14T08:34:46.292Z,1.60
2022-08-14T08:37:13.751Z,1.70
2022-08-14T08:40:02.906Z,1.80
2022-08-14T08:42:38.628Z,1.70
2022-08-14T08:45:14.716Z,1.70
2022-08-14T08:47:44.208Z,1.70
2022-08-14T08:50:23.302Z,2.08
2022-08-14T08:53:09.007Z,1.90
2022-08-14T08:55:44.645Z,1.88
2022-08-14T08:58:20.156Z,2.00
2022-08-14T09:00:54.856Z,2.05
2022-08-14T09:03:27.516Z,2.20
2022-08-14T09:05:57.239Z,1.90
2022-08-14T09:08:31.519Z,1.85
2022-08-14T09:11:02.302Z,1.90
2022-08-14T09:13:30.615Z,1.98
2022-08-14T09:16:00.927Z,1.90
2022-08-14T09:18:46.578Z,1.98
2022-08-14T09:21:16.346Z,1.70
2022-08-14T09:24:28.094Z,1.88
2022-08-14T09:26:30.298Z,1.80
2022-08-14T09:28:59.686Z,1.90
2022-08-14T09:31:28.684Z,1.80
2022-08-14T09:34:28.049Z,1.87
2022-08-14T09:37:37.448Z,1.67
2022-08-14T09:40:24.896Z,1.75
2022-08-14T09:43:23.828Z,1.73
2022-08-14T09:45:52.838Z,1.95
2022-08-14T09:48:29.943Z,2.33
2022-08-14T09:54:12.899Z,2.10
2022-08-14T09:56:31.218Z,2.20
2022-08-14T09:59:12.842Z,2.10
2022-08-14T10:01:52.454Z,1.95
2022-08-14T10:04:32.885Z,2.08
2022-08-14T10:07:08.468Z,1.90
2022-08-14T10:09:59.996Z,2.03
2022-08-14T10:12:46.468Z,2.55
2022-08-14T10:15:19.570Z,1.95
2022-08-14T10:17:49.232Z,2.40
2022-08-14T10:20:40.327Z,2.40
2022-08-14T10:23:17.944Z,2.30
2022-08-14T10:28:39.203Z,2.47
2022-08-14T10:31:20.254Z,2.20
2022-08-14T10:36:47.572Z,2.30
2022-08-14T10:39:21.561Z,2.03
2022-08-14T10:41:53.883Z,2.20
2022-08-14T10:44:29.653Z,2.33
2022-08-14T10:47:41.251Z,2.30
2022-08-14T10:50:00.766Z,2.13
2022-08-14T10:52:33.984Z,1.95
2022-08-14T10:55:16.566Z,1.98
2022-08-14T10:57:54.167Z,2.08
2022-08-14T11:00:30.258Z,2.28
2022-08-14T11:03:13.257Z,2.08
2022-08-14T11:05:55.950Z,2.10
2022-08-14T11:08:33.872Z,2.50
2022-08-14T11:11:04.051Z,2.38
2022-08-14T11:13:31.910Z,2.28
2022-08-14T11:16:01.153Z,2.40
2022-08-14T11:18:32.175Z,2.72
2022-08-14T11:21:05.131Z,2.45
2022-08-14T11:23:39.825Z,2.33
2022-08-14T11:26:10.198Z,1.92
2022-08-14T11:28:46.267Z,1.98
2022-08-14T11:31:18.050Z,2.40
2022-08-14T11:33:57.832Z,1.90
2022-08-14T11:36:57.052Z,1.80
2022-08-14T11:39:34.802Z,2.00
2022-08-14T11:42:57.806Z,2.00
2022-08-14T11:44:59.870Z,2.40
2022-08-14T11:47:34.869Z,2.28
2022-08-14T11:50:14.446Z,2.13
2022-08-14T11:53:04.530Z,2.22
2022-08-14T11:55:38.280Z,2.10
2022-08-14T11:58:11.245Z,2.03
2022-08-14T12:00:53.832Z,1.83
2022-08-14T12:03:37.880Z,1.92
2022-08-14T12:06:27.986Z,2.28
2022-08-14T12:08:56.915Z,2.20
2022-08-14T12:11:43.370Z,2.15
2022-08-14T12:14:13.432Z,2.38
2022-08-14T12:17:11.750Z,2.00
2022-08-14T12:19:51.569Z,1.83
2022-08-14T12:22:40.166Z,1.90
2022-08-14T12:25:21.194Z,2.20
2022-08-14T12:27:54.733Z,2.13
2022-08-14T12:30:37.660Z,2.08
2022-08-14T12:33:08.753Z,1.98
2022-08-14T12:35:43.707Z,1.73
2022-08-14T12:38:19.329Z,1.80
2022-08-14T12:40:48.970Z,1.60
2022-08-14T12:43:19.856Z,1.83
2022-08-14T12:45:51.031Z,1.75
2022-08-14T12:48:21.431Z,1.50
2022-08-14T12:50:58.448Z,1.70
2022-08-14T12:53:38.449Z,2.05
2022-08-14T12:56:22.620Z,1.90
2022-08-14T12:58:58.078Z,1.65
2022-08-14T13:01:30.909Z,1.77
2022-08-14T13:04:13.488Z,1.55
2022-08-14T13:06:51.191Z,1.60
2022-08-14T13:09:19.757Z,1.80
2022-08-14T13:11:58.857Z,1.77
2022-08-14T13:14:42.429Z,1.50
2022-08-14T13:17:11.589Z,1.83
2022-08-14T13:19:40.634Z,1.40
2022-08-14T13:22:09.907Z,1.35
2022-08-14T13:24:48.004Z,1.40
2022-08-14T13:27:15.707Z,1.50
2022-08-14T13:29:47.507Z,1.92
2022-08-14T13:32:15.339Z,1.92
2022-08-14T13:34:45.439Z,1.98
2022-08-14T13:37:17.282Z,1.77
2022-08-14T13:39:57.497Z,1.70
2022-08-14T13:42:30.949Z,1.70
2022-08-14T13:45:02.307Z,1.77
2022-08-14T13:47:30.830Z,1.77
2022-08-14T13:50:00.404Z,1.73
2022-08-14T13:52:51.828Z,1.73
2022-08-14T13:55:28.039Z,2.00
2022-08-14T13:58:03.318Z,1.50
2022-08-14T14:00:35.766Z,1.90
2022-08-14T14:03:08.754Z,1.80
2022-08-14T14:05:52.772Z,1.67
2022-08-14T14:08:43.206Z,1.60
2022-08-14T14:11:13.255Z,1.50
2022-08-14T14:13:45.122Z,1.60
2022-08-14T14:16:15.387Z,1.48
2022-08-14T14:18:55.842Z,1.70
2022-08-14T14:21:28.675Z,1.40
2022-08-14T14:23:56.499Z,1.70
2022-08-14T14:26:24.844Z,1.73
2022-08-14T14:28:55.330Z,1.67
2022-08-14T14:31:29.973Z,1.88
2022-08-14T14:33:59.880Z,1.60
2022-08-14T14:36:29.375Z,1.73
2022-08-14T14:39:01.213Z,2.00
2022-08-14T14:41:37.712Z,1.30
2022-08-14T14:44:16.477Z,1.73
2022-08-14T14:46:49.427Z,1.63
2022-08-14T14:49:22.188Z,1.60
2022-08-14T14:51:58.941Z,1.83
2022-08-14T14:54:31.592Z,1.83
2022-08-14T14:57:09.166Z,1.75
2022-08-14T14:59:38.310Z,1.88
2022-08-14T15:02:08.143Z,1.73
2022-08-14T15:04:38.133Z,2.10
2022-08-14T15:07:06.318Z,1.70
2022-08-14T15:09:34.486Z,1.73
2022-08-14T15:12:05.582Z,1.67
2022-08-14T15:14:54.749Z,1.80
2022-08-14T15:17:24.973Z,2.90
2022-08-14T15:19:56.708Z,2.40
2022-08-14T15:22:25.289Z,2.85
2022-08-14T15:24:52.381Z,2.90
2022-08-14T15:27:26.234Z,2.60
2022-08-14T15:29:53.846Z,2.58
2022-08-14T15:32:23.134Z,2.60
2022-08-14T15:34:52.556Z,5.05
2022-08-14T15:37:22.084Z,4.07
2022-08-14T15:39:52.575Z,3.90
2022-08-14T15:42:21.230Z,3.90
2022-08-14T15:44:56.897Z,3.70
2022-08-14T15:47:28.510Z,3.90
2022-08-14T15:49:59.015Z,6.10
2022-08-14T15:52:32.789Z,8.05
2022-08-14T15:55:10.113Z,4.20
2022-08-14T15:57:40.038Z,3.55
2022-08-14T16:00:49.904Z,2.72
2022-08-14T16:03:27.482Z,3.20
2022-08-14T16:06:10.836Z,2.60
2022-08-14T16:08:45.291Z,3.00
2022-08-14T16:11:13.932Z,3.53
2022-08-14T16:13:45.066Z,2.75
2022-08-14T16:16:34.655Z,3.25
2022-08-14T16:19:11.070Z,2.80
2022-08-14T16:21:58.360Z,2.90
2022-08-14T16:24:33.061Z,2.63
2022-08-14T16:27:01.477Z,2.97
2022-08-14T16:29:34.521Z,2.70
2022-08-14T16:34:54.866Z,3.13
2022-08-14T16:37:30.547Z,3.17
2022-08-14T16:39:59.309Z,2.92
2022-08-14T16:40:24.512Z,3.30
2022-08-14T16:43:02.241Z,3.05
2022-08-14T16:45:17.235Z,2.90
2022-08-14T16:47:44.498Z,3.10
2022-08-14T16:50:15.326Z,3.20
2022-08-14T16:53:02.298Z,3.03
2022-08-14T16:55:35.266Z,3.28
2022-08-14T16:58:21.311Z,3.22
2022-08-14T17:00:54.123Z,3.30
2022-08-14T17:03:20.842Z,3.67
2022-08-14T17:05:48.591Z,3.50
2022-08-14T17:08:32.828Z,3.45
2022-08-14T17:11:10.533Z,3.35
2022-08-14T17:13:58.190Z,3.42
2022-08-14T17:16:37.407Z,3.50
2022-08-14T17:19:09.830Z,3.65
2022-08-14T17:21:42.029Z,4.40
2022-08-14T17:24:58.199Z,4.22
2022-08-14T17:27:04.195Z,4.00
2022-08-14T17:29:44.979Z,5.30
2022-08-14T17:32:29.507Z,3.63
2022-08-14T17:35:11.055Z,3.70
2022-08-14T17:37:44.847Z,3.70
2022-08-14T17:40:16.397Z,3.67
2022-08-14T17:42:51.893Z,3.72
2022-08-14T17:45:41.670Z,4.30
2022-08-14T17:49:15.248Z,4.03
2022-08-14T17:51:23.670Z,3.65
2022-08-14T17:54:01.432Z,3.90
2022-08-14T17:56:33.844Z,4.05
2022-08-14T17:59:03.941Z,3.53
2022-08-14T18:01:35.426Z,4.18
2022-08-14T18:04:05.729Z,3.60
2022-08-14T18:07:06.145Z,4.00
2022-08-14T18:09:57.422Z,3.88
2022-08-14T18:12:36.730Z,4.03
2022-08-14T18:15:16.630Z,3.90
2022-08-14T18:17:53.359Z,3.40
2022-08-14T18:21:24.692Z,3.88
2022-08-14T18:23:13.716Z,4.00
2022-08-14T18:25:51.810Z,3.90
2022-08-14T18:28:51.739Z,3.45
2022-08-14T18:31:20.174Z,3.75
2022-08-14T18:33:55.787Z,3.78
2022-08-14T18:36:48.565Z,4.05
2022-08-14T18:39:29.566Z,3.78
2022-08-14T18:42:23.378Z,4.32
2022-08-14T18:44:50.897Z,4.35
2022-08-14T18:47:21.133Z,4.13
2022-08-14T18:49:57.839Z,4.32
2022-08-14T18:52:39.829Z,4.55
2022-08-14T18:55:18.360Z,4.45
2022-08-14T18:58:03.940Z,4.40
2022-08-14T19:00:33.889Z,4.90
2022-08-14T19:03:03.372Z,4.70
2022-08-14T19:05:47.611Z,4.45
2022-08-14T19:08:26.310Z,4.45
2022-08-14T19:11:00.683Z,4.72
2022-08-14T19:13:48.090Z,4.80
2022-08-14T19:16:23.762Z,4.70
2022-08-14T19:19:00.542Z,5.25
2022-08-14T19:21:40.941Z,5.50
2022-08-14T19:24:27.354Z,4.60
2022-08-14T19:27:19.498Z,4.72
2022-08-14T19:29:51.235Z,4.85
2022-08-14T19:32:36.600Z,5.18
2022-08-14T19:35:18.211Z,5.18
2022-08-14T19:37:54.818Z,5.05
2022-08-14T19:40:34.474Z,5.00
2022-08-14T19:43:06.778Z,4.70
2022-08-14T19:45:37.975Z,5.15
2022-08-14T19:48:17.841Z,5.20
2022-08-14T19:50:47.179Z,5.38
2022-08-14T19:53:18.314Z,5.15
2022-08-14T19:56:02.357Z,5.60
2022-08-14T20:02:02.863Z,5.53
2022-08-14T20:05:18.266Z,5.32
2022-08-14T20:08:00.438Z,5.43
2022-08-14T20:11:07.095Z,5.97
2022-08-14T20:14:20.547Z,5.85
2022-08-14T20:17:06.139Z,6.63
2022-08-14T20:27:09.265Z,6.03
2022-08-14T20:29:40.617Z,6.03
2022-08-14T20:32:08.572Z,6.20
2022-08-14T20:34:51.514Z,6.40
2022-08-14T20:37:22.137Z,6.03
2022-08-14T20:39:54.708Z,5.57
2022-08-14T20:42:43.915Z,5.72
2022-08-14T20:45:24.243Z,5.43
2022-08-14T20:48:07.207Z,5.20
2022-08-14T20:50:36.731Z,5.50
2022-08-14T20:53:35.443Z,5.50
2022-08-14T20:56:28.698Z,5.35
2022-08-14T20:58:57.681Z,5.95
2022-08-14T21:01:24.592Z,5.82
2022-08-14T21:04:00.883Z,6.15
2022-08-14T21:07:22.826Z,5.85
2022-08-14T21:10:03.139Z,5.70
2022-08-14T21:12:35.122Z,5.60
2022-08-14T21:15:00.591Z,6.45
2022-08-14T21:17:30.166Z,6.22
2022-08-14T21:19:57.348Z,6.00
2022-08-14T21:22:26.844Z,6.07
2022-08-14T21:25:02.286Z,6.22
2022-08-14T21:27:37.510Z,6.20
2022-08-14T21:30:08.917Z,6.40
2022-08-14T21:32:50.183Z,6.32
2022-08-14T21:35:24.611Z,7.30
2022-08-14T21:37:52.454Z,6.35
2022-08-14T21:40:41.802Z,6.60
2022-08-14T21:43:31.618Z,6.43
2022-08-14T21:51:52.444Z,6.72
2022-08-14T21:53:58.801Z,6.95
2022-08-14T21:56:38.287Z,6.45
2022-08-14T21:59:17.794Z,6.53
2022-08-14T22:01:59.422Z,6.53
2022-08-14T22:04:34.566Z,6.80
2022-08-14T22:07:12.115Z,7.70
2022-08-14T22:09:42.779Z,7.05
2022-08-14T22:12:58.271Z,7.75
2022-08-14T22:15:02.964Z,7.97
2022-08-14T22:17:32.316Z,8.10
2022-08-14T22:20:02.790Z,7.18
2022-08-14T22:22:32.109Z,7.40
2022-08-14T22:25:00.893Z,7.15
2022-08-14T22:27:32.235Z,7.32
2022-08-14T22:30:00.589Z,7.35
2022-08-14T22:32:56.128Z,6.93
2022-08-14T22:35:23.494Z,7.18
2022-08-14T22:38:36.341Z,7.15
2022-08-14T22:41:20.727Z,6.95
2022-08-14T22:43:35.891Z,7.28
2022-08-14T22:46:14.550Z,6.70
2022-08-14T22:48:45.550Z,6.45
2022-08-14T22:51:19.136Z,6.47
2022-08-14T22:53:49.403Z,7.13
2022-08-14T22:56:30.090Z,6.22
2022-08-14T22:59:02.477Z,5.80
2022-08-14T23:01:56.748Z,6.10
2022-08-14T23:04:53.981Z,6.53
2022-08-14T23:07:24.310Z,6.72
2022-08-14T23:10:33.340Z,5.97
2022-08-14T23:12:54.450Z,6.43
2022-08-14T23:15:24.525Z,6.57
2022-08-14T23:18:25.480Z,6.13
2022-08-14T23:20:57.725Z,6.25
2022-08-14T23:23:29.394Z,6.03
2022-08-14T23:26:00.508Z,6.28
2022-08-14T23:31:34.360Z,6.10
2022-08-14T23:34:06.776Z,6.25
2022-08-14T23:36:53.003Z,6.45
2022-08-14T23:39:31.455Z,5.88
2022-08-14T23:42:08.350Z,5.90
2022-08-14T23:44:45.863Z,5.82
2022-08-14T23:47:27.866Z,6.10
2022-08-14T23:50:03.671Z,6.00
2022-08-14T23:52:56.221Z,6.00
2022-08-14T23:55:31.224Z,5.50
2022-08-14T23:58:00.606Z,6.22
